sensor_id;sensor_type;location;lat;lon;timestamp;P1;durP1;ratioP1;P2;durP2;ratioP2
38117;SDS011;23928;47.562;7.508;2023-03-16T00:01:13;11.60;;;4.70;;
38117;SDS011;23928;47.562;7.508;2023-03-16T00:03:39;9.63;;;4.80;;
38117;SDS011;23928;47.562;7.508;2023-03-16T00:06:05;9.07;;;5.27;;
38117;SDS011;23928;47.562;7.508;2023-03-16T00:08:30;11.53;;;5.43;;
38117;SDS011;23928;47.562;7.508;2023-03-16T00:10:56;7.00;;;4.90;;
38117;SDS011;23928;47.562;7.508;2023-03-16T00:13:22;11.23;;;4.83;;
38117;SDS011;23928;47.562;7.508;2023-03-16T00:15:52;9.90;;;4.20;;
38117;SDS011;23928;47.562;7.508;2023-03-16T00:18:20;7.97;;;5.07;;
38117;SDS011;23928;47.562;7.508;2023-03-16T00:20:51;10.00;;;4.80;;
38117;SDS011;23928;47.562;7.508;2023-03-16T00:23:17;15.27;;;5.97;;
38117;SDS011;23928;47.562;7.508;2023-03-16T00:25:43;13.33;;;5.10;;
38117;SDS011;23928;47.562;7.508;2023-03-16T00:28:09;13.53;;;6.50;;
38117;SDS011;23928;47.562;7.508;2023-03-16T00:30:37;13.53;;;6.17;;
38117;SDS011;23928;47.562;7.508;2023-03-16T00:33:03;13.03;;;6.40;;
38117;SDS011;23928;47.562;7.508;2023-03-16T00:35:29;14.30;;;7.10;;
38117;SDS011;23928;47.562;7.508;2023-03-16T00:37:58;17.93;;;8.20;;
38117;SDS011;23928;47.562;7.508;2023-03-16T00:40:24;18.87;;;8.70;;
38117;SDS011;23928;47.562;7.508;2023-03-16T00:42:49;14.80;;;7.20;;
38117;SDS011;23928;47.562;7.508;2023-03-16T00:45:15;17.20;;;7.80;;
38117;SDS011;23928;47.562;7.508;2023-03-16T00:47:41;16.53;;;8.43;;
38117;SDS011;23928;47.562;7.508;2023-03-16T00:50:06;15.53;;;6.83;;
38117;SDS011;23928;47.562;7.508;2023-03-16T00:52:32;11.17;;;5.97;;
38117;SDS011;23928;47.562;7.508;2023-03-16T00:54:59;12.10;;;6.47;;
38117;SDS011;23928;47.562;7.508;2023-03-16T00:57:27;9.43;;;5.13;;
38117;SDS011;23928;47.562;7.508;2023-03-16T00:59:54;9.77;;;5.40;;
38117;SDS011;23928;47.562;7.508;2023-03-16T01:02:20;8.00;;;4.67;;
38117;SDS011;23928;47.562;7.508;2023-03-16T01:04:48;8.27;;;5.17;;
38117;SDS011;23928;47.562;7.508;2023-03-16T01:07:15;11.90;;;5.30;;
38117;SDS011;23928;47.562;7.508;2023-03-16T01:09:41;10.83;;;5.20;;
38117;SDS011;23928;47.562;7.508;2023-03-16T01:12:09;11.33;;;5.67;;
38117;SDS011;23928;47.562;7.508;2023-03-16T01:14:37;9.73;;;4.87;;
38117;SDS011;23928;47.562;7.508;2023-03-16T01:17:03;6.97;;;4.43;;
38117;SDS011;23928;47.562;7.508;2023-03-16T01:19:32;9.83;;;5.07;;
38117;SDS011;23928;47.562;7.508;2023-03-16T01:21:59;6.77;;;3.83;;
38117;SDS011;23928;47.562;7.508;2023-03-16T01:24:29;6.87;;;3.33;;
38117;SDS011;23928;47.562;7.508;2023-03-16T01:26:55;5.87;;;3.53;;
38117;SDS011;23928;47.562;7.508;2023-03-16T01:29:20;6.63;;;3.80;;
38117;SDS011;23928;47.562;7.508;2023-03-16T01:31:46;6.03;;;3.60;;
38117;SDS011;23928;47.562;7.508;2023-03-16T01:34:14;8.13;;;4.07;;
38117;SDS011;23928;47.562;7.508;2023-03-16T01:36:40;6.30;;;3.20;;
38117;SDS011;23928;47.562;7.508;2023-03-16T01:39:08;4.60;;;3.50;;
38117;SDS011;23928;47.562;7.508;2023-03-16T01:41:35;6.27;;;3.47;;
38117;SDS011;23928;47.562;7.508;2023-03-16T01:44:01;4.23;;;3.23;;
38117;SDS011;23928;47.562;7.508;2023-03-16T01:46:27;6.63;;;3.47;;
38117;SDS011;23928;47.562;7.508;2023-03-16T01:51:42;5.03;;;3.30;;
38117;SDS011;23928;47.562;7.508;2023-03-16T01:57:10;4.40;;;3.27;;
38117;SDS011;23928;47.562;7.508;2023-03-16T02:00:04;7.70;;;3.80;;
38117;SDS011;23928;47.562;7.508;2023-03-16T02:02:34;5.77;;;3.87;;
38117;SDS011;23928;47.562;7.508;2023-03-16T02:05:09;4.80;;;3.27;;
38117;SDS011;23928;47.562;7.508;2023-03-16T02:07:40;5.27;;;3.47;;
38117;SDS011;23928;47.562;7.508;2023-03-16T02:10:10;6.50;;;3.37;;
38117;SDS011;23928;47.562;7.508;2023-03-16T02:12:38;8.33;;;3.87;;
38117;SDS011;23928;47.562;7.508;2023-03-16T02:15:04;4.43;;;3.33;;
38117;SDS011;23928;47.562;7.508;2023-03-16T02:17:31;5.63;;;3.77;;
38117;SDS011;23928;47.562;7.508;2023-03-16T02:22:44;7.97;;;4.63;;
38117;SDS011;23928;47.562;7.508;2023-03-16T02:25:13;11.47;;;4.83;;
38117;SDS011;23928;47.562;7.508;2023-03-16T02:30:26;7.77;;;4.37;;
38117;SDS011;23928;47.562;7.508;2023-03-16T02:32:52;7.07;;;4.50;;
38117;SDS011;23928;47.562;7.508;2023-03-16T02:35:19;7.60;;;4.57;;
38117;SDS011;23928;47.562;7.508;2023-03-16T02:37:45;8.73;;;4.70;;
38117;SDS011;23928;47.562;7.508;2023-03-16T02:42:47;8.63;;;4.53;;
38117;SDS011;23928;47.562;7.508;2023-03-16T02:45:20;7.83;;;4.37;;
38117;SDS011;23928;47.562;7.508;2023-03-16T02:47:49;8.77;;;4.80;;
38117;SDS011;23928;47.562;7.508;2023-03-16T02:50:17;8.77;;;4.43;;
38117;SDS011;23928;47.562;7.508;2023-03-16T02:52:43;8.23;;;4.77;;
38117;SDS011;23928;47.562;7.508;2023-03-16T02:55:09;9.27;;;5.30;;
38117;SDS011;23928;47.562;7.508;2023-03-16T02:57:35;8.47;;;4.60;;
38117;SDS011;23928;47.562;7.508;2023-03-16T03:00:00;9.23;;;4.57;;
38117;SDS011;23928;47.562;7.508;2023-03-16T03:02:30;9.57;;;4.80;;
38117;SDS011;23928;47.562;7.508;2023-03-16T03:04:55;8.33;;;4.37;;
38117;SDS011;23928;47.562;7.508;2023-03-16T03:07:21;8.87;;;5.07;;
38117;SDS011;23928;47.562;7.508;2023-03-16T03:09:56;8.80;;;4.57;;
38117;SDS011;23928;47.562;7.508;2023-03-16T03:12:22;6.17;;;4.20;;
38117;SDS011;23928;47.562;7.508;2023-03-16T03:14:48;7.20;;;4.20;;
38117;SDS011;23928;47.562;7.508;2023-03-16T03:17:13;6.00;;;3.57;;
38117;SDS011;23928;47.562;7.508;2023-03-16T03:19:39;4.97;;;3.43;;
38117;SDS011;23928;47.562;7.508;2023-03-16T03:22:06;7.63;;;3.90;;
38117;SDS011;23928;47.562;7.508;2023-03-16T03:24:32;7.23;;;3.80;;
38117;SDS011;23928;47.562;7.508;2023-03-16T03:26:58;4.90;;;3.43;;
38117;SDS011;23928;47.562;7.508;2023-03-16T03:29:27;6.07;;;3.67;;
38117;SDS011;23928;47.562;7.508;2023-03-16T03:32:02;5.87;;;3.13;;
38117;SDS011;23928;47.562;7.508;2023-03-16T03:34:28;5.90;;;3.70;;
38117;SDS011;23928;47.562;7.508;2023-03-16T03:36:55;3.97;;;3.00;;
38117;SDS011;23928;47.562;7.508;2023-03-16T03:39:21;4.90;;;3.40;;
38117;SDS011;23928;47.562;7.508;2023-03-16T03:41:47;6.00;;;3.87;;
38117;SDS011;23928;47.562;7.508;2023-03-16T03:44:13;6.37;;;4.27;;
38117;SDS011;23928;47.562;7.508;2023-03-16T03:46:39;8.20;;;3.70;;
38117;SDS011;23928;47.562;7.508;2023-03-16T03:49:04;6.37;;;4.07;;
38117;SDS011;23928;47.562;7.508;2023-03-16T03:51:30;8.23;;;4.70;;
38117;SDS011;23928;47.562;7.508;2023-03-16T03:53:57;6.70;;;3.80;;
38117;SDS011;23928;47.562;7.508;2023-03-16T03:56:23;4.83;;;3.93;;
38117;SDS011;23928;47.562;7.508;2023-03-16T03:58:49;6.30;;;3.73;;
38117;SDS011;23928;47.562;7.508;2023-03-16T04:01:14;5.90;;;3.70;;
38117;SDS011;23928;47.562;7.508;2023-03-16T04:03:40;6.50;;;3.67;;
38117;SDS011;23928;47.562;7.508;2023-03-16T04:06:06;6.97;;;3.80;;
38117;SDS011;23928;47.562;7.508;2023-03-16T04:08:32;7.03;;;4.30;;
38117;SDS011;23928;47.562;7.508;2023-03-16T04:10:58;6.80;;;4.70;;
38117;SDS011;23928;47.562;7.508;2023-03-16T04:13:25;6.97;;;3.73;;
38117;SDS011;23928;47.562;7.508;2023-03-16T04:15:57;7.37;;;4.50;;
38117;SDS011;23928;47.562;7.508;2023-03-16T04:18:26;5.50;;;3.70;;
38117;SDS011;23928;47.562;7.508;2023-03-16T04:20:52;6.17;;;3.60;;
38117;SDS011;23928;47.562;7.508;2023-03-16T04:23:18;5.87;;;4.20;;
38117;SDS011;23928;47.562;7.508;2023-03-16T04:25:45;6.57;;;4.07;;
38117;SDS011;23928;47.562;7.508;2023-03-16T04:28:10;4.40;;;3.27;;
38117;SDS011;23928;47.562;7.508;2023-03-16T04:30:36;5.43;;;3.73;;
38117;SDS011;23928;47.562;7.508;2023-03-16T04:33:02;5.40;;;3.70;;
38117;SDS011;23928;47.562;7.508;2023-03-16T04:35:28;5.13;;;3.43;;
38117;SDS011;23928;47.562;7.508;2023-03-16T04:37:54;4.60;;;3.40;;
38117;SDS011;23928;47.562;7.508;2023-03-16T04:40:20;3.90;;;3.17;;
38117;SDS011;23928;47.562;7.508;2023-03-16T04:42:46;5.53;;;3.83;;
38117;SDS011;23928;47.562;7.508;2023-03-16T04:45:12;6.03;;;4.07;;
38117;SDS011;23928;47.562;7.508;2023-03-16T04:47:39;7.00;;;3.97;;
38117;SDS011;23928;47.562;7.508;2023-03-16T04:50:05;6.43;;;4.30;;
38117;SDS011;23928;47.562;7.508;2023-03-16T04:52:31;5.27;;;3.80;;
38117;SDS011;23928;47.562;7.508;2023-03-16T04:54:57;5.27;;;3.77;;
38117;SDS011;23928;47.562;7.508;2023-03-16T04:57:22;8.13;;;4.20;;
38117;SDS011;23928;47.562;7.508;2023-03-16T04:59:48;6.67;;;3.97;;
38117;SDS011;23928;47.562;7.508;2023-03-16T05:02:15;8.47;;;4.90;;
38117;SDS011;23928;47.562;7.508;2023-03-16T05:04:41;9.40;;;4.40;;
38117;SDS011;23928;47.562;7.508;2023-03-16T05:07:07;6.67;;;4.27;;
38117;SDS011;23928;47.562;7.508;2023-03-16T05:09:33;6.50;;;4.17;;
38117;SDS011;23928;47.562;7.508;2023-03-16T05:11:58;6.07;;;3.90;;
38117;SDS011;23928;47.562;7.508;2023-03-16T05:14:24;9.27;;;4.17;;
38117;SDS011;23928;47.562;7.508;2023-03-16T05:16:50;8.07;;;4.70;;
38117;SDS011;23928;47.562;7.508;2023-03-16T05:19:16;8.70;;;4.93;;
38117;SDS011;23928;47.562;7.508;2023-03-16T05:21:42;6.70;;;4.20;;
38117;SDS011;23928;47.562;7.508;2023-03-16T05:24:09;10.07;;;4.30;;
38117;SDS011;23928;47.562;7.508;2023-03-16T05:26:36;7.03;;;3.97;;
38117;SDS011;23928;47.562;7.508;2023-03-16T05:29:02;10.53;;;4.10;;
38117;SDS011;23928;47.562;7.508;2023-03-16T05:31:28;5.10;;;3.73;;
38117;SDS011;23928;47.562;7.508;2023-03-16T05:33:56;6.67;;;3.57;;
38117;SDS011;23928;47.562;7.508;2023-03-16T05:36:22;6.00;;;3.60;;
38117;SDS011;23928;47.562;7.508;2023-03-16T05:38:48;5.80;;;3.70;;
38117;SDS011;23928;47.562;7.508;2023-03-16T05:41:14;4.17;;;3.03;;
38117;SDS011;23928;47.562;7.508;2023-03-16T05:43:42;6.80;;;3.17;;
38117;SDS011;23928;47.562;7.508;2023-03-16T05:46:10;4.77;;;3.10;;
38117;SDS011;23928;47.562;7.508;2023-03-16T05:48:36;5.87;;;3.10;;
38117;SDS011;23928;47.562;7.508;2023-03-16T05:51:01;4.40;;;2.73;;
38117;SDS011;23928;47.562;7.508;2023-03-16T05:53:30;5.40;;;2.87;;
38117;SDS011;23928;47.562;7.508;2023-03-16T05:55:56;7.80;;;3.00;;
38117;SDS011;23928;47.562;7.508;2023-03-16T05:58:22;5.20;;;3.30;;
38117;SDS011;23928;47.562;7.508;2023-03-16T06:00:47;5.00;;;2.90;;
38117;SDS011;23928;47.562;7.508;2023-03-16T06:03:14;4.57;;;3.00;;
38117;SDS011;23928;47.562;7.508;2023-03-16T06:05:40;3.60;;;2.90;;
38117;SDS011;23928;47.562;7.508;2023-03-16T06:08:06;4.17;;;2.60;;
38117;SDS011;23928;47.562;7.508;2023-03-16T06:10:33;6.53;;;3.20;;
38117;SDS011;23928;47.562;7.508;2023-03-16T06:12:59;4.10;;;3.10;;
38117;SDS011;23928;47.562;7.508;2023-03-16T06:15:25;4.33;;;3.07;;
38117;SDS011;23928;47.562;7.508;2023-03-16T06:17:53;3.10;;;2.53;;
38117;SDS011;23928;47.562;7.508;2023-03-16T06:20:19;5.10;;;3.33;;
38117;SDS011;23928;47.562;7.508;2023-03-16T06:22:45;4.37;;;3.37;;
38117;SDS011;23928;47.562;7.508;2023-03-16T06:25:11;6.37;;;3.80;;
38117;SDS011;23928;47.562;7.508;2023-03-16T06:27:37;6.47;;;3.73;;
38117;SDS011;23928;47.562;7.508;2023-03-16T06:30:04;4.87;;;3.67;;
38117;SDS011;23928;47.562;7.508;2023-03-16T06:32:32;4.20;;;3.20;;
38117;SDS011;23928;47.562;7.508;2023-03-16T06:34:59;5.40;;;3.67;;
38117;SDS011;23928;47.562;7.508;2023-03-16T06:37:26;4.90;;;3.67;;
38117;SDS011;23928;47.562;7.508;2023-03-16T06:39:52;5.90;;;3.93;;
38117;SDS011;23928;47.562;7.508;2023-03-16T06:42:18;4.93;;;4.07;;
38117;SDS011;23928;47.562;7.508;2023-03-16T06:44:44;8.00;;;4.23;;
38117;SDS011;23928;47.562;7.508;2023-03-16T06:47:09;6.33;;;3.77;;
38117;SDS011;23928;47.562;7.508;2023-03-16T06:49:35;5.23;;;3.80;;
38117;SDS011;23928;47.562;7.508;2023-03-16T06:52:01;6.10;;;3.47;;
38117;SDS011;23928;47.562;7.508;2023-03-16T06:54:27;3.37;;;3.00;;
38117;SDS011;23928;47.562;7.508;2023-03-16T06:56:56;4.03;;;3.57;;
38117;SDS011;23928;47.562;7.508;2023-03-16T06:59:22;3.87;;;2.93;;
38117;SDS011;23928;47.562;7.508;2023-03-16T07:01:47;4.03;;;3.27;;
38117;SDS011;23928;47.562;7.508;2023-03-16T07:04:14;7.33;;;3.10;;
38117;SDS011;23928;47.562;7.508;2023-03-16T07:06:39;4.83;;;3.10;;
38117;SDS011;23928;47.562;7.508;2023-03-16T07:09:05;4.13;;;3.17;;
38117;SDS011;23928;47.562;7.508;2023-03-16T07:11:31;4.33;;;3.47;;
38117;SDS011;23928;47.562;7.508;2023-03-16T07:13:57;5.73;;;3.30;;
38117;SDS011;23928;47.562;7.508;2023-03-16T07:16:23;4.50;;;3.43;;
38117;SDS011;23928;47.562;7.508;2023-03-16T07:18:49;8.03;;;3.30;;
38117;SDS011;23928;47.562;7.508;2023-03-16T07:21:16;6.70;;;3.57;;
38117;SDS011;23928;47.562;7.508;2023-03-16T07:23:41;4.87;;;2.97;;
38117;SDS011;23928;47.562;7.508;2023-03-16T07:26:08;7.57;;;3.23;;
38117;SDS011;23928;47.562;7.508;2023-03-16T07:28:36;4.37;;;2.83;;
38117;SDS011;23928;47.562;7.508;2023-03-16T07:31:05;3.40;;;2.70;;
38117;SDS011;23928;47.562;7.508;2023-03-16T07:33:31;5.43;;;3.20;;
38117;SDS011;23928;47.562;7.508;2023-03-16T07:35:58;4.60;;;3.07;;
38117;SDS011;23928;47.562;7.508;2023-03-16T07:38:23;4.03;;;2.60;;
38117;SDS011;23928;47.562;7.508;2023-03-16T07:40:49;3.93;;;2.67;;
38117;SDS011;23928;47.562;7.508;2023-03-16T07:43:16;5.00;;;2.90;;
38117;SDS011;23928;47.562;7.508;2023-03-16T07:45:46;3.53;;;2.90;;
38117;SDS011;23928;47.562;7.508;2023-03-16T07:48:13;4.90;;;3.00;;
38117;SDS011;23928;47.562;7.508;2023-03-16T07:50:38;4.67;;;2.63;;
38117;SDS011;23928;47.562;7.508;2023-03-16T07:53:04;4.73;;;2.63;;
38117;SDS011;23928;47.562;7.508;2023-03-16T07:55:29;4.80;;;2.67;;
38117;SDS011;23928;47.562;7.508;2023-03-16T07:57:55;7.53;;;3.20;;
38117;SDS011;23928;47.562;7.508;2023-03-16T08:00:21;4.57;;;2.40;;
38117;SDS011;23928;47.562;7.508;2023-03-16T08:02:48;3.27;;;2.53;;
38117;SDS011;23928;47.562;7.508;2023-03-16T08:05:14;4.67;;;2.70;;
38117;SDS011;23928;47.562;7.508;2023-03-16T08:07:40;3.17;;;2.60;;
38117;SDS011;23928;47.562;7.508;2023-03-16T08:10:06;5.07;;;2.87;;
38117;SDS011;23928;47.562;7.508;2023-03-16T08:12:32;5.43;;;3.00;;
38117;SDS011;23928;47.562;7.508;2023-03-16T08:14:58;4.20;;;2.80;;
38117;SDS011;23928;47.562;7.508;2023-03-16T08:17:24;6.00;;;3.37;;
38117;SDS011;23928;47.562;7.508;2023-03-16T08:19:49;6.10;;;2.93;;
38117;SDS011;23928;47.562;7.508;2023-03-16T08:22:15;5.00;;;2.77;;
38117;SDS011;23928;47.562;7.508;2023-03-16T08:24:41;3.27;;;2.83;;
38117;SDS011;23928;47.562;7.508;2023-03-16T08:27:07;6.23;;;2.70;;
38117;SDS011;23928;47.562;7.508;2023-03-16T08:29:32;3.43;;;2.30;;
38117;SDS011;23928;47.562;7.508;2023-03-16T08:31:58;4.27;;;2.70;;
38117;SDS011;23928;47.562;7.508;2023-03-16T08:34:25;5.97;;;2.70;;
38117;SDS011;23928;47.562;7.508;2023-03-16T08:36:51;3.17;;;2.70;;
38117;SDS011;23928;47.562;7.508;2023-03-16T08:39:18;3.63;;;2.73;;
38117;SDS011;23928;47.562;7.508;2023-03-16T08:41:44;7.03;;;3.23;;
38117;SDS011;23928;47.562;7.508;2023-03-16T08:44:11;3.73;;;3.00;;
38117;SDS011;23928;47.562;7.508;2023-03-16T08:46:37;4.17;;;2.40;;
38117;SDS011;23928;47.562;7.508;2023-03-16T08:49:03;3.90;;;2.50;;
38117;SDS011;23928;47.562;7.508;2023-03-16T08:51:29;3.67;;;2.63;;
38117;SDS011;23928;47.562;7.508;2023-03-16T08:53:55;4.00;;;2.63;;
38117;SDS011;23928;47.562;7.508;2023-03-16T08:56:20;5.53;;;2.50;;
38117;SDS011;23928;47.562;7.508;2023-03-16T08:58:46;3.60;;;2.40;;
38117;SDS011;23928;47.562;7.508;2023-03-16T09:01:14;2.57;;;2.00;;
38117;SDS011;23928;47.562;7.508;2023-03-16T09:03:41;2.80;;;2.03;;
38117;SDS011;23928;47.562;7.508;2023-03-16T09:06:10;5.20;;;2.10;;
38117;SDS011;23928;47.562;7.508;2023-03-16T09:08:38;2.87;;;1.93;;
38117;SDS011;23928;47.562;7.508;2023-03-16T09:11:05;2.33;;;2.00;;
38117;SDS011;23928;47.562;7.508;2023-03-16T09:13:33;3.57;;;2.40;;
38117;SDS011;23928;47.562;7.508;2023-03-16T09:15:59;3.27;;;2.23;;
38117;SDS011;23928;47.562;7.508;2023-03-16T09:18:25;2.30;;;2.10;;
38117;SDS011;23928;47.562;7.508;2023-03-16T09:20:54;2.57;;;1.80;;
38117;SDS011;23928;47.562;7.508;2023-03-16T09:23:23;6.67;;;2.10;;
38117;SDS011;23928;47.562;7.508;2023-03-16T09:25:50;3.70;;;2.00;;
38117;SDS011;23928;47.562;7.508;2023-03-16T09:28:15;3.73;;;1.93;;
38117;SDS011;23928;47.562;7.508;2023-03-16T09:30:41;2.10;;;1.90;;
38117;SDS011;23928;47.562;7.508;2023-03-16T09:33:07;2.63;;;2.20;;
38117;SDS011;23928;47.562;7.508;2023-03-16T09:35:33;3.60;;;2.20;;
38117;SDS011;23928;47.562;7.508;2023-03-16T09:37:58;3.87;;;1.97;;
38117;SDS011;23928;47.562;7.508;2023-03-16T09:40:25;2.90;;;1.90;;
38117;SDS011;23928;47.562;7.508;2023-03-16T09:45:55;4.70;;;2.17;;
38117;SDS011;23928;47.562;7.508;2023-03-16T09:48:33;2.40;;;2.20;;
38117;SDS011;23928;47.562;7.508;2023-03-16T09:51:02;3.03;;;2.20;;
38117;SDS011;23928;47.562;7.508;2023-03-16T09:53:35;3.87;;;1.73;;
38117;SDS011;23928;47.562;7.508;2023-03-16T09:56:04;6.67;;;2.40;;
38117;SDS011;23928;47.562;7.508;2023-03-16T09:58:40;3.17;;;1.90;;
38117;SDS011;23928;47.562;7.508;2023-03-16T10:01:15;2.97;;;2.17;;
38117;SDS011;23928;47.562;7.508;2023-03-16T10:04:05;3.47;;;2.10;;
38117;SDS011;23928;47.562;7.508;2023-03-16T10:12:17;2.63;;;2.20;;
38117;SDS011;23928;47.562;7.508;2023-03-16T10:15:02;3.33;;;2.10;;
38117;SDS011;23928;47.562;7.508;2023-03-16T10:20:19;2.90;;;2.10;;
38117;SDS011;23928;47.562;7.508;2023-03-16T10:22:47;3.40;;;2.40;;
38117;SDS011;23928;47.562;7.508;2023-03-16T10:25:24;2.03;;;1.83;;
38117;SDS011;23928;47.562;7.508;2023-03-16T10:27:56;2.43;;;2.20;;
38117;SDS011;23928;47.562;7.508;2023-03-16T10:32:55;3.90;;;2.03;;
38117;SDS011;23928;47.562;7.508;2023-03-16T10:38:23;6.30;;;2.30;;
38117;SDS011;23928;47.562;7.508;2023-03-16T10:43:42;2.67;;;1.93;;
38117;SDS011;23928;47.562;7.508;2023-03-16T10:46:09;4.27;;;2.03;;
38117;SDS011;23928;47.562;7.508;2023-03-16T10:48:36;2.20;;;2.00;;
38117;SDS011;23928;47.562;7.508;2023-03-16T10:51:03;3.07;;;2.10;;
38117;SDS011;23928;47.562;7.508;2023-03-16T10:53:35;3.27;;;1.90;;
38117;SDS011;23928;47.562;7.508;2023-03-16T10:56:12;4.50;;;1.80;;
38117;SDS011;23928;47.562;7.508;2023-03-16T10:58:44;3.87;;;2.30;;
38117;SDS011;23928;47.562;7.508;2023-03-16T11:03:49;2.20;;;1.73;;
38117;SDS011;23928;47.562;7.508;2023-03-16T11:06:21;5.80;;;2.43;;
38117;SDS011;23928;47.562;7.508;2023-03-16T11:08:48;5.37;;;1.97;;
38117;SDS011;23928;47.562;7.508;2023-03-16T11:11:17;2.17;;;1.87;;
38117;SDS011;23928;47.562;7.508;2023-03-16T11:13:45;4.17;;;1.63;;
38117;SDS011;23928;47.562;7.508;2023-03-16T11:18:59;3.53;;;2.10;;
38117;SDS011;23928;47.562;7.508;2023-03-16T11:21:46;2.10;;;1.90;;
38117;SDS011;23928;47.562;7.508;2023-03-16T11:24:21;3.30;;;2.07;;
38117;SDS011;23928;47.562;7.508;2023-03-16T11:26:54;3.93;;;1.70;;
38117;SDS011;23928;47.562;7.508;2023-03-16T11:31:49;4.10;;;2.00;;
38117;SDS011;23928;47.562;7.508;2023-03-16T11:34:24;3.07;;;2.17;;
38117;SDS011;23928;47.562;7.508;2023-03-16T11:36:54;3.60;;;2.00;;
38117;SDS011;23928;47.562;7.508;2023-03-16T11:45:22;5.00;;;1.90;;
38117;SDS011;23928;47.562;7.508;2023-03-16T11:48:02;3.60;;;2.60;;
38117;SDS011;23928;47.562;7.508;2023-03-16T11:50:44;4.73;;;2.30;;
38117;SDS011;23928;47.562;7.508;2023-03-16T11:53:26;3.60;;;2.07;;
38117;SDS011;23928;47.562;7.508;2023-03-16T12:01:38;2.50;;;2.00;;
38117;SDS011;23928;47.562;7.508;2023-03-16T12:04:37;2.53;;;2.10;;
38117;SDS011;23928;47.562;7.508;2023-03-16T12:10:11;6.03;;;2.53;;
38117;SDS011;23928;47.562;7.508;2023-03-16T12:12:48;3.27;;;2.50;;
38117;SDS011;23928;47.562;7.508;2023-03-16T12:15:28;2.80;;;2.20;;
38117;SDS011;23928;47.562;7.508;2023-03-16T12:19:00;3.53;;;2.30;;
38117;SDS011;23928;47.562;7.508;2023-03-16T12:21:12;3.03;;;2.20;;
38117;SDS011;23928;47.562;7.508;2023-03-16T12:24:03;4.43;;;2.43;;
38117;SDS011;23928;47.562;7.508;2023-03-16T12:26:34;4.30;;;2.20;;
38117;SDS011;23928;47.562;7.508;2023-03-16T12:29:06;3.93;;;2.27;;
38117;SDS011;23928;47.562;7.508;2023-03-16T12:31:53;3.93;;;2.20;;
38117;SDS011;23928;47.562;7.508;2023-03-16T12:39:34;3.40;;;2.20;;
38117;SDS011;23928;47.562;7.508;2023-03-16T12:45:14;3.97;;;2.23;;
38117;SDS011;23928;47.562;7.508;2023-03-16T12:50:34;3.33;;;2.20;;
38117;SDS011;23928;47.562;7.508;2023-03-16T12:53:40;4.27;;;2.20;;
38117;SDS011;23928;47.562;7.508;2023-03-16T12:56:31;3.30;;;2.30;;
38117;SDS011;23928;47.562;7.508;2023-03-16T12:59:07;2.80;;;1.90;;
38117;SDS011;23928;47.562;7.508;2023-03-16T13:01:48;2.90;;;1.97;;
38117;SDS011;23928;47.562;7.508;2023-03-16T13:04:19;4.40;;;2.10;;
38117;SDS011;23928;47.562;7.508;2023-03-16T13:06:48;4.50;;;2.20;;
38117;SDS011;23928;47.562;7.508;2023-03-16T13:09:21;3.60;;;2.27;;
38117;SDS011;23928;47.562;7.508;2023-03-16T13:11:52;3.90;;;2.60;;
38117;SDS011;23928;47.562;7.508;2023-03-16T13:19:45;6.70;;;2.20;;
38117;SDS011;23928;47.562;7.508;2023-03-16T13:22:40;3.57;;;2.50;;
38117;SDS011;23928;47.562;7.508;2023-03-16T13:27:47;3.60;;;2.23;;
38117;SDS011;23928;47.562;7.508;2023-03-16T13:32:46;3.87;;;2.03;;
38117;SDS011;23928;47.562;7.508;2023-03-16T13:35:13;3.53;;;2.10;;
38117;SDS011;23928;47.562;7.508;2023-03-16T13:37:41;4.00;;;2.30;;
38117;SDS011;23928;47.562;7.508;2023-03-16T13:42:47;3.70;;;2.03;;
38117;SDS011;23928;47.562;7.508;2023-03-16T13:45:18;3.77;;;2.10;;
38117;SDS011;23928;47.562;7.508;2023-03-16T13:47:52;3.07;;;1.87;;
38117;SDS011;23928;47.562;7.508;2023-03-16T13:50:18;3.97;;;2.27;;
38117;SDS011;23928;47.562;7.508;2023-03-16T13:53:09;3.20;;;2.30;;
38117;SDS011;23928;47.562;7.508;2023-03-16T13:55:43;2.20;;;1.97;;
38117;SDS011;23928;47.562;7.508;2023-03-16T13:58:17;3.07;;;2.13;;
38117;SDS011;23928;47.562;7.508;2023-03-16T14:00:58;2.97;;;1.77;;
38117;SDS011;23928;47.562;7.508;2023-03-16T14:03:33;2.93;;;2.00;;
38117;SDS011;23928;47.562;7.508;2023-03-16T14:06:01;3.07;;;2.13;;
38117;SDS011;23928;47.562;7.508;2023-03-16T14:08:30;2.90;;;1.97;;
38117;SDS011;23928;47.562;7.508;2023-03-16T14:10:58;2.83;;;1.83;;
38117;SDS011;23928;47.562;7.508;2023-03-16T14:15:57;3.33;;;2.13;;
38117;SDS011;23928;47.562;7.508;2023-03-16T14:18:35;1.67;;;1.57;;
38117;SDS011;23928;47.562;7.508;2023-03-16T14:21:06;2.73;;;1.67;;
38117;SDS011;23928;47.562;7.508;2023-03-16T14:23:41;2.40;;;1.73;;
38117;SDS011;23928;47.562;7.508;2023-03-16T14:26:13;4.80;;;1.70;;
38117;SDS011;23928;47.562;7.508;2023-03-16T14:28:55;2.83;;;1.70;;
38117;SDS011;23928;47.562;7.508;2023-03-16T14:31:32;2.43;;;1.70;;
38117;SDS011;23928;47.562;7.508;2023-03-16T14:34:00;4.27;;;2.00;;
38117;SDS011;23928;47.562;7.508;2023-03-16T14:36:37;3.30;;;1.87;;
38117;SDS011;23928;47.562;7.508;2023-03-16T14:39:13;3.33;;;1.90;;
38117;SDS011;23928;47.562;7.508;2023-03-16T14:41:43;2.60;;;1.37;;
38117;SDS011;23928;47.562;7.508;2023-03-16T14:46:46;3.43;;;1.50;;
38117;SDS011;23928;47.562;7.508;2023-03-16T14:51:45;3.53;;;1.77;;
38117;SDS011;23928;47.562;7.508;2023-03-16T14:54:12;3.40;;;1.80;;
38117;SDS011;23928;47.562;7.508;2023-03-16T14:56:42;3.40;;;1.70;;
38117;SDS011;23928;47.562;7.508;2023-03-16T14:59:13;3.33;;;1.30;;
38117;SDS011;23928;47.562;7.508;2023-03-16T15:01:38;3.47;;;1.50;;
38117;SDS011;23928;47.562;7.508;2023-03-16T15:04:04;3.93;;;1.80;;
38117;SDS011;23928;47.562;7.508;2023-03-16T15:06:31;2.70;;;1.70;;
38117;SDS011;23928;47.562;7.508;2023-03-16T15:08:58;3.57;;;1.73;;
38117;SDS011;23928;47.562;7.508;2023-03-16T15:11:24;2.03;;;1.30;;
38117;SDS011;23928;47.562;7.508;2023-03-16T15:13:50;2.07;;;1.77;;
38117;SDS011;23928;47.562;7.508;2023-03-16T15:16:17;2.50;;;1.57;;
38117;SDS011;23928;47.562;7.508;2023-03-16T15:18:44;3.40;;;1.70;;
38117;SDS011;23928;47.562;7.508;2023-03-16T15:23:37;4.63;;;1.70;;
38117;SDS011;23928;47.562;7.508;2023-03-16T15:26:08;2.40;;;1.60;;
38117;SDS011;23928;47.562;7.508;2023-03-16T15:28:38;4.43;;;1.43;;
38117;SDS011;23928;47.562;7.508;2023-03-16T15:31:04;3.07;;;1.77;;
38117;SDS011;23928;47.562;7.508;2023-03-16T15:33:30;1.90;;;1.70;;
38117;SDS011;23928;47.562;7.508;2023-03-16T15:35:57;2.23;;;1.73;;
38117;SDS011;23928;47.562;7.508;2023-03-16T15:38:27;2.17;;;1.57;;
38117;SDS011;23928;47.562;7.508;2023-03-16T15:40:58;2.17;;;1.70;;
38117;SDS011;23928;47.562;7.508;2023-03-16T15:43:25;2.63;;;1.70;;
38117;SDS011;23928;47.562;7.508;2023-03-16T15:45:54;5.37;;;2.27;;
38117;SDS011;23928;47.562;7.508;2023-03-16T15:48:20;2.37;;;1.53;;
38117;SDS011;23928;47.562;7.508;2023-03-16T15:50:52;4.67;;;1.70;;
38117;SDS011;23928;47.562;7.508;2023-03-16T15:53:27;2.97;;;1.50;;
38117;SDS011;23928;47.562;7.508;2023-03-16T15:56:00;2.10;;;1.50;;
38117;SDS011;23928;47.562;7.508;2023-03-16T15:58:30;4.33;;;1.87;;
38117;SDS011;23928;47.562;7.508;2023-03-16T16:00:58;3.47;;;1.50;;
38117;SDS011;23928;47.562;7.508;2023-03-16T16:03:25;3.80;;;1.40;;
38117;SDS011;23928;47.562;7.508;2023-03-16T16:05:51;3.70;;;1.13;;
38117;SDS011;23928;47.562;7.508;2023-03-16T16:08:18;5.13;;;1.53;;
38117;SDS011;23928;47.562;7.508;2023-03-16T16:10:45;3.60;;;1.20;;
38117;SDS011;23928;47.562;7.508;2023-03-16T16:13:13;2.30;;;1.50;;
38117;SDS011;23928;47.562;7.508;2023-03-16T16:15:54;1.70;;;1.17;;
38117;SDS011;23928;47.562;7.508;2023-03-16T16:18:25;4.60;;;1.57;;
38117;SDS011;23928;47.562;7.508;2023-03-16T16:20:57;1.87;;;1.57;;
38117;SDS011;23928;47.562;7.508;2023-03-16T16:23:24;2.07;;;1.23;;
38117;SDS011;23928;47.562;7.508;2023-03-16T16:25:54;2.00;;;1.30;;
38117;SDS011;23928;47.562;7.508;2023-03-16T16:28:23;2.23;;;1.47;;